Bookmark and Share
Track history (hours):
 

Mount Hope

Last reported at 2014-Apr-16 23:33 UTC. Time now 2014-Apr-23 06:46 UTC.
Position N 42°24' W 070°47'.

Length 182 m; draft 7.4 m.

Type: Tanker. MMSI: 210137000.

NotesDate/timePositionNaut miles runAvg speedWind from/ knotsBaromVisibWave heightAir tempDewpointWater temp
2014-Apr-16 23:33N 42°24' W 070°47'0 0.1
2014-Apr-16 22:24N 42°24' W 070°47'0 0.0
2014-Apr-16 19:24N 42°24' W 070°47'0 0.0
2014-Apr-16 18:09N 42°24' W 070°47'0 0.0
2014-Apr-16 17:15N 42°24' W 070°47'0 0.0
2014-Apr-16 16:33N 42°24' W 070°47'0 0.0
2014-Apr-16 15:18N 42°24' W 070°47'0 0.0
2014-Apr-16 13:27N 42°24' W 070°47'0 0.0
2014-Apr-16 12:15N 42°24' W 070°47'0 0.0
2014-Apr-16 11:24N 42°24' W 070°47'0 0.0
2014-Apr-16 10:33N 42°24' W 070°47'0 0.0
2014-Apr-16 09:33N 42°24' W 070°47'0 0.0
2014-Apr-16 08:24N 42°24' W 070°47'0 0.0
2014-Apr-16 07:30N 42°24' W 070°47'0 0.0
2014-Apr-16 06:30N 42°24' W 070°47'0 0.0
2014-Apr-16 05:33N 42°24' W 070°47'0 0.0
2014-Apr-16 04:30N 42°24' W 070°47'0 0.1
2014-Apr-16 03:33N 42°24' W 070°47'0 0.1
2014-Apr-16 02:30N 42°24' W 070°47'0 0.1
2014-Apr-16 00:03N 42°24' W 070°47'0 0.0
2014-Apr-15 23:30N 42°24' W 070°47'0 0.0
2014-Apr-15 22:33N 42°24' W 070°47'0 0.0
2014-Apr-15 21:33N 42°24' W 070°47'0 0.0
2014-Apr-15 17:06N 42°24' W 070°47'0 0.0
2014-Apr-15 15:13N 42°24' W 070°47'0 0.0
2014-Apr-15 09:31N 42°24' W 070°47'0 0.0
2014-Apr-15 03:31N 42°24' W 070°47'0 0.0
2014-Apr-15 02:31N 42°24' W 070°47'0 0.0
2014-Apr-15 01:31N 42°24' W 070°47'0 0.0
2014-Apr-15 00:34N 42°24' W 070°47'0 0.0
2014-Apr-14 23:33N 42°24' W 070°47'0 0.0
2014-Apr-14 22:30N 42°24' W 070°47'0 0.0
2014-Apr-14 21:33N 42°24' W 070°47'0 0.0
2014-Apr-14 20:33N 42°24' W 070°47'0 0.0
2014-Apr-14 19:30N 42°24' W 070°47'0 0.0
2014-Apr-14 18:30N 42°24' W 070°47'0 0.0
2014-Apr-14 17:33N 42°24' W 070°47'0 0.0
2014-Apr-14 16:30N 42°24' W 070°47'0 0.0
2014-Apr-14 15:30N 42°24' W 070°47'0 0.0
2014-Apr-14 14:33N 42°24' W 070°47'0 0.0
2014-Apr-14 13:33N 42°24' W 070°47'0 0.0
2014-Apr-14 10:33N 42°24' W 070°47'0 0.0
2014-Apr-14 08:30N 42°24' W 070°47'0 0.0
2014-Apr-14 06:30N 42°24' W 070°47'10 1.3
2014-Apr-13 22:33N 42°20' W 071°00'3 3.2
2014-Apr-13 21:33N 42°24' W 071°01'0 0.0
2014-Apr-12 23:22N 42°24' W 071°01'0 0.4
2014-Apr-12 22:34N 42°24' W 071°01'0 0.0
2014-Apr-11 10:33N 42°24' W 071°01'2 2.3
2014-Apr-11 09:34N 42°22' W 071°03'4 3.5
2014-Apr-11 08:29N 42°20' W 070°58'0 0.1
2014-Apr-11 07:32N 42°20' W 070°58'0 0.1
2014-Apr-11 06:32N 42°20' W 070°58'0 0.0
2014-Apr-11 05:32N 42°20' W 070°58'0 0.0
2014-Apr-11 04:32N 42°20' W 070°58'0 0.0
2014-Apr-11 03:32N 42°20' W 070°58'0 0.0
2014-Apr-11 02:32N 42°20' W 070°58'0 0.0
2014-Apr-11 01:32N 42°20' W 070°58'0 0.1
2014-Apr-11 00:32N 42°20' W 070°58'0 0.0
2014-Apr-10 23:32N 42°20' W 070°58'0 0.0
2014-Apr-10 22:32N 42°20' W 070°58'0 0.0
2014-Apr-10 21:32N 42°20' W 070°58'0 0.0
2014-Apr-10 20:32N 42°20' W 070°58'0 0.0
2014-Apr-10 19:32N 42°20' W 070°58'0 0.1
2014-Apr-10 18:32N 42°20' W 070°58'2 1.5
2014-Apr-10 17:32N 42°21' W 070°56'  

Dump ship's entire track history

sailing weather and tide predictions

Mount Hope — C4QH2 — position and weather